sensor_id;sensor_type;location;lat;lon;timestamp;pressure;altitude;pressure_sealevel;temperature;humidity
7264;BME280;3673;52.480;13.348;2023-03-04T00:01:33;101416.03;;;6.96;58.76
7264;BME280;3673;52.480;13.348;2023-03-04T00:04:00;101419.06;;;7.51;56.85
7264;BME280;3673;52.480;13.348;2023-03-04T00:06:27;101416.41;;;7.48;56.82
7264;BME280;3673;52.480;13.348;2023-03-04T00:08:53;101423.91;;;7.35;57.19
7264;BME280;3673;52.480;13.348;2023-03-04T00:11:22;101409.16;;;7.35;56.82
7264;BME280;3673;52.480;13.348;2023-03-04T00:13:49;101426.47;;;6.97;58.63
7264;BME280;3673;52.480;13.348;2023-03-04T00:16:16;101414.34;;;6.98;57.66
7264;BME280;3673;52.480;13.348;2023-03-04T00:18:45;101409.50;;;6.77;58.98
7264;BME280;3673;52.480;13.348;2023-03-04T00:21:12;101413.28;;;6.90;58.92
7264;BME280;3673;52.480;13.348;2023-03-04T00:23:39;101397.16;;;7.42;57.15
7264;BME280;3673;52.480;13.348;2023-03-04T00:26:07;101395.97;;;7.28;57.89
7264;BME280;3673;52.480;13.348;2023-03-04T00:28:35;101394.50;;;7.39;57.38
7264;BME280;3673;52.480;13.348;2023-03-04T00:31:04;101389.34;;;7.42;57.02
7264;BME280;3673;52.480;13.348;2023-03-04T00:33:31;101394.75;;;7.12;57.48
7264;BME280;3673;52.480;13.348;2023-03-04T00:35:57;101392.00;;;7.06;58.44
7264;BME280;3673;52.480;13.348;2023-03-04T00:38:24;101396.13;;;6.62;59.10
7264;BME280;3673;52.480;13.348;2023-03-04T00:40:52;101399.19;;;7.16;58.11
7264;BME280;3673;52.480;13.348;2023-03-04T00:43:19;101405.16;;;6.78;59.45
7264;BME280;3673;52.480;13.348;2023-03-04T00:45:47;101383.81;;;6.91;59.47
7264;BME280;3673;52.480;13.348;2023-03-04T00:48:14;101391.63;;;6.91;59.10
7264;BME280;3673;52.480;13.348;2023-03-04T00:50:42;101383.66;;;6.83;58.84
7264;BME280;3673;52.480;13.348;2023-03-04T00:53:09;101378.22;;;7.10;59.06
7264;BME280;3673;52.480;13.348;2023-03-04T00:55:36;101372.72;;;7.34;58.25
7264;BME280;3673;52.480;13.348;2023-03-04T00:58:03;101384.28;;;7.48;57.34
7264;BME280;3673;52.480;13.348;2023-03-04T01:00:30;101380.53;;;6.98;57.92
7264;BME280;3673;52.480;13.348;2023-03-04T01:02:58;101380.41;;;7.31;57.87
7264;BME280;3673;52.480;13.348;2023-03-04T01:05:25;101366.41;;;7.63;56.71
7264;BME280;3673;52.480;13.348;2023-03-04T01:07:52;101361.53;;;7.80;56.32
7264;BME280;3673;52.480;13.348;2023-03-04T01:10:19;101359.84;;;7.82;56.17
7264;BME280;3673;52.480;13.348;2023-03-04T01:12:46;101364.97;;;7.38;56.59
7264;BME280;3673;52.480;13.348;2023-03-04T01:15:13;101382.78;;;6.84;58.52
7264;BME280;3673;52.480;13.348;2023-03-04T01:17:40;101377.84;;;6.95;57.75
7264;BME280;3673;52.480;13.348;2023-03-04T01:20:10;101376.84;;;7.25;58.00
7264;BME280;3673;52.480;13.348;2023-03-04T01:22:37;101364.97;;;7.37;57.55
7264;BME280;3673;52.480;13.348;2023-03-04T01:25:05;101358.25;;;7.48;57.54
7264;BME280;3673;52.480;13.348;2023-03-04T01:27:32;101351.84;;;7.32;57.82
7264;BME280;3673;52.480;13.348;2023-03-04T01:29:59;101336.69;;;7.14;57.83
7264;BME280;3673;52.480;13.348;2023-03-04T01:32:25;101339.94;;;7.04;58.62
7264;BME280;3673;52.480;13.348;2023-03-04T01:34:52;101344.19;;;7.80;56.55
7264;BME280;3673;52.480;13.348;2023-03-04T01:37:20;101349.19;;;7.31;57.73
7264;BME280;3673;52.480;13.348;2023-03-04T01:39:47;101343.50;;;7.48;57.06
7264;BME280;3673;52.480;13.348;2023-03-04T01:42:18;101336.47;;;7.43;56.96
7264;BME280;3673;52.480;13.348;2023-03-04T01:44:47;101339.44;;;7.61;56.84
7264;BME280;3673;52.480;13.348;2023-03-04T01:47:14;101339.28;;;7.53;56.91
7264;BME280;3673;52.480;13.348;2023-03-04T01:49:41;101330.19;;;7.75;56.93
7264;BME280;3673;52.480;13.348;2023-03-04T01:52:12;101334.56;;;8.24;55.15
7264;BME280;3673;52.480;13.348;2023-03-04T01:54:40;101324.84;;;7.69;56.44
7264;BME280;3673;52.480;13.348;2023-03-04T01:57:15;101327.63;;;8.23;55.32
7264;BME280;3673;52.480;13.348;2023-03-04T01:59:44;101323.25;;;8.22;54.86
7264;BME280;3673;52.480;13.348;2023-03-04T02:02:11;101316.97;;;7.66;56.66
7264;BME280;3673;52.480;13.348;2023-03-04T02:04:39;101311.50;;;7.96;56.58
7264;BME280;3673;52.480;13.348;2023-03-04T02:07:07;101312.63;;;8.11;55.92
7264;BME280;3673;52.480;13.348;2023-03-04T02:09:34;101320.69;;;7.78;57.15
7264;BME280;3673;52.480;13.348;2023-03-04T02:12:04;101314.81;;;7.87;56.47
7264;BME280;3673;52.480;13.348;2023-03-04T02:14:30;101308.91;;;7.97;56.19
7264;BME280;3673;52.480;13.348;2023-03-04T02:16:58;101310.66;;;8.43;55.42
7264;BME280;3673;52.480;13.348;2023-03-04T02:19:38;101302.75;;;7.92;56.36
7264;BME280;3673;52.480;13.348;2023-03-04T02:22:07;101301.63;;;7.36;57.89
7264;BME280;3673;52.480;13.348;2023-03-04T02:24:39;101304.63;;;8.01;57.61
7264;BME280;3673;52.480;13.348;2023-03-04T02:27:08;101294.91;;;7.92;57.39
7264;BME280;3673;52.480;13.348;2023-03-04T02:29:35;101286.47;;;8.04;57.13
7264;BME280;3673;52.480;13.348;2023-03-04T02:32:02;101284.22;;;7.77;57.81
7264;BME280;3673;52.480;13.348;2023-03-04T02:34:33;101285.06;;;8.24;57.13
7264;BME280;3673;52.480;13.348;2023-03-04T02:37:01;101282.94;;;8.50;56.23
7264;BME280;3673;52.480;13.348;2023-03-04T02:39:32;101283.66;;;8.40;56.15
7264;BME280;3673;52.480;13.348;2023-03-04T02:42:01;101279.78;;;8.21;56.63
7264;BME280;3673;52.480;13.348;2023-03-04T02:44:32;101268.38;;;8.13;56.54
7264;BME280;3673;52.480;13.348;2023-03-04T02:47:00;101275.97;;;8.47;56.63
7264;BME280;3673;52.480;13.348;2023-03-04T02:49:30;101258.09;;;8.22;56.63
7264;BME280;3673;52.480;13.348;2023-03-04T02:52:00;101262.00;;;8.45;56.93
7264;BME280;3673;52.480;13.348;2023-03-04T02:54:28;101261.38;;;8.61;56.27
7264;BME280;3673;52.480;13.348;2023-03-04T02:56:58;101262.09;;;8.51;55.76
7264;BME280;3673;52.480;13.348;2023-03-04T02:59:25;101262.31;;;8.65;56.28
7264;BME280;3673;52.480;13.348;2023-03-04T03:01:54;101256.38;;;8.24;57.27
7264;BME280;3673;52.480;13.348;2023-03-04T03:04:21;101256.69;;;8.41;56.43
7264;BME280;3673;52.480;13.348;2023-03-04T03:06:49;101262.13;;;8.54;56.34
7264;BME280;3673;52.480;13.348;2023-03-04T03:09:16;101260.81;;;8.26;56.61
7264;BME280;3673;52.480;13.348;2023-03-04T03:11:43;101261.63;;;8.25;57.56
7264;BME280;3673;52.480;13.348;2023-03-04T03:14:10;101256.66;;;8.38;56.93
7264;BME280;3673;52.480;13.348;2023-03-04T03:16:37;101245.63;;;8.54;56.65
7264;BME280;3673;52.480;13.348;2023-03-04T03:19:05;101261.09;;;8.43;56.33
7264;BME280;3673;52.480;13.348;2023-03-04T03:21:32;101254.31;;;8.54;56.48
7264;BME280;3673;52.480;13.348;2023-03-04T03:23:59;101257.84;;;8.58;56.55
7264;BME280;3673;52.480;13.348;2023-03-04T03:26:26;101251.13;;;8.72;56.31
7264;BME280;3673;52.480;13.348;2023-03-04T03:29:19;101244.53;;;8.98;55.81
7264;BME280;3673;52.480;13.348;2023-03-04T03:31:47;101250.53;;;8.36;57.15
7264;BME280;3673;52.480;13.348;2023-03-04T03:34:15;101253.19;;;8.37;57.28
7264;BME280;3673;52.480;13.348;2023-03-04T03:36:42;101243.88;;;8.54;57.04
7264;BME280;3673;52.480;13.348;2023-03-04T03:39:09;101250.25;;;8.73;56.85
7264;BME280;3673;52.480;13.348;2023-03-04T03:41:36;101241.25;;;9.13;55.92
7264;BME280;3673;52.480;13.348;2023-03-04T03:44:02;101245.94;;;8.73;56.30
7264;BME280;3673;52.480;13.348;2023-03-04T03:46:29;101226.16;;;8.89;56.09
7264;BME280;3673;52.480;13.348;2023-03-04T03:48:56;101240.09;;;8.34;57.77
7264;BME280;3673;52.480;13.348;2023-03-04T03:51:24;101225.72;;;8.06;58.93
7264;BME280;3673;52.480;13.348;2023-03-04T03:53:51;101219.81;;;8.72;57.14
7264;BME280;3673;52.480;13.348;2023-03-04T03:56:18;101211.22;;;8.79;57.07
7264;BME280;3673;52.480;13.348;2023-03-04T03:58:44;101208.91;;;9.00;56.33
7264;BME280;3673;52.480;13.348;2023-03-04T04:01:11;101219.78;;;8.69;56.98
7264;BME280;3673;52.480;13.348;2023-03-04T04:03:38;101209.28;;;9.32;55.72
7264;BME280;3673;52.480;13.348;2023-03-04T04:06:06;101200.34;;;9.12;55.82
7264;BME280;3673;52.480;13.348;2023-03-04T04:08:34;101201.06;;;9.00;56.06
7264;BME280;3673;52.480;13.348;2023-03-04T04:11:01;101209.66;;;8.92;56.52
7264;BME280;3673;52.480;13.348;2023-03-04T04:13:28;101208.47;;;9.38;55.38
7264;BME280;3673;52.480;13.348;2023-03-04T04:15:54;101210.88;;;8.55;57.37
7264;BME280;3673;52.480;13.348;2023-03-04T04:18:21;101213.09;;;8.89;56.40
7264;BME280;3673;52.480;13.348;2023-03-04T04:20:48;101206.16;;;8.91;56.41
7264;BME280;3673;52.480;13.348;2023-03-04T04:23:17;101205.75;;;8.62;57.58
7264;BME280;3673;52.480;13.348;2023-03-04T04:25:45;101200.84;;;8.84;57.18
7264;BME280;3673;52.480;13.348;2023-03-04T04:28:11;101207.66;;;8.74;57.32
7264;BME280;3673;52.480;13.348;2023-03-04T04:30:38;101205.16;;;8.82;56.86
7264;BME280;3673;52.480;13.348;2023-03-04T04:33:05;101208.41;;;8.64;57.37
7264;BME280;3673;52.480;13.348;2023-03-04T04:35:34;101195.53;;;8.76;57.45
7264;BME280;3673;52.480;13.348;2023-03-04T04:38:03;101203.84;;;8.49;58.28
7264;BME280;3673;52.480;13.348;2023-03-04T04:40:30;101193.94;;;8.89;56.79
7264;BME280;3673;52.480;13.348;2023-03-04T04:42:58;101195.22;;;8.55;58.42
7264;BME280;3673;52.480;13.348;2023-03-04T04:45:25;101190.03;;;8.58;57.39
7264;BME280;3673;52.480;13.348;2023-03-04T04:47:52;101188.38;;;8.63;57.63
7264;BME280;3673;52.480;13.348;2023-03-04T04:50:22;101192.88;;;8.73;57.87
7264;BME280;3673;52.480;13.348;2023-03-04T04:52:49;101195.88;;;8.40;58.54
7264;BME280;3673;52.480;13.348;2023-03-04T04:55:16;101183.06;;;9.21;56.36
7264;BME280;3673;52.480;13.348;2023-03-04T04:57:43;101186.91;;;8.80;57.27
7264;BME280;3673;52.480;13.348;2023-03-04T05:00:15;101181.78;;;8.91;57.60
7264;BME280;3673;52.480;13.348;2023-03-04T05:02:43;101190.75;;;8.48;58.19
7264;BME280;3673;52.480;13.348;2023-03-04T05:05:10;101178.09;;;8.73;57.58
7264;BME280;3673;52.480;13.348;2023-03-04T05:07:37;101188.63;;;8.81;57.78
7264;BME280;3673;52.480;13.348;2023-03-04T05:10:04;101180.31;;;9.11;57.05
7264;BME280;3673;52.480;13.348;2023-03-04T05:12:31;101180.75;;;8.76;57.37
7264;BME280;3673;52.480;13.348;2023-03-04T05:14:58;101179.56;;;9.19;56.57
7264;BME280;3673;52.480;13.348;2023-03-04T05:17:26;101170.91;;;9.23;55.84
7264;BME280;3673;52.480;13.348;2023-03-04T05:19:53;101176.59;;;8.92;57.03
7264;BME280;3673;52.480;13.348;2023-03-04T05:22:19;101180.75;;;8.78;58.13
7264;BME280;3673;52.480;13.348;2023-03-04T05:24:46;101169.06;;;9.15;56.69
7264;BME280;3673;52.480;13.348;2023-03-04T05:27:13;101170.53;;;8.95;57.44
7264;BME280;3673;52.480;13.348;2023-03-04T05:29:40;101170.84;;;9.19;56.66
7264;BME280;3673;52.480;13.348;2023-03-04T05:32:09;101169.84;;;9.08;57.16
7264;BME280;3673;52.480;13.348;2023-03-04T05:34:37;101178.72;;;8.56;58.65
7264;BME280;3673;52.480;13.348;2023-03-04T05:37:04;101170.50;;;8.90;58.22
7264;BME280;3673;52.480;13.348;2023-03-04T05:39:30;101174.66;;;9.47;56.84
7264;BME280;3673;52.480;13.348;2023-03-04T05:41:57;101172.06;;;9.51;56.53
7264;BME280;3673;52.480;13.348;2023-03-04T05:44:24;101171.47;;;8.98;57.27
7264;BME280;3673;52.480;13.348;2023-03-04T05:46:51;101163.00;;;9.19;57.28
7264;BME280;3673;52.480;13.348;2023-03-04T05:49:18;101163.69;;;9.03;57.76
7264;BME280;3673;52.480;13.348;2023-03-04T05:51:46;101170.28;;;9.46;56.89
7264;BME280;3673;52.480;13.348;2023-03-04T05:54:13;101163.03;;;9.22;57.86
7264;BME280;3673;52.480;13.348;2023-03-04T05:56:41;101160.34;;;9.13;58.02
7264;BME280;3673;52.480;13.348;2023-03-04T05:59:08;101162.91;;;9.10;58.12
7264;BME280;3673;52.480;13.348;2023-03-04T06:01:34;101168.00;;;8.99;58.18
7264;BME280;3673;52.480;13.348;2023-03-04T06:04:02;101170.72;;;9.08;58.49
7264;BME280;3673;52.480;13.348;2023-03-04T06:06:28;101169.06;;;9.13;58.64
7264;BME280;3673;52.480;13.348;2023-03-04T06:08:56;101164.53;;;9.02;58.73
7264;BME280;3673;52.480;13.348;2023-03-04T06:11:23;101161.88;;;8.96;58.57
7264;BME280;3673;52.480;13.348;2023-03-04T06:13:50;101172.94;;;9.52;57.39
7264;BME280;3673;52.480;13.348;2023-03-04T06:16:17;101168.00;;;9.01;59.06
7264;BME280;3673;52.480;13.348;2023-03-04T06:18:43;101170.91;;;8.56;60.07
7264;BME280;3673;52.480;13.348;2023-03-04T06:21:10;101166.03;;;8.80;59.86
7264;BME280;3673;52.480;13.348;2023-03-04T06:23:37;101175.47;;;8.72;60.33
7264;BME280;3673;52.480;13.348;2023-03-04T06:26:05;101173.13;;;8.90;59.98
7264;BME280;3673;52.480;13.348;2023-03-04T06:28:34;101168.25;;;9.20;59.58
7264;BME280;3673;52.480;13.348;2023-03-04T06:31:01;101174.78;;;9.60;58.54
7264;BME280;3673;52.480;13.348;2023-03-04T06:33:28;101173.75;;;9.43;58.66
7264;BME280;3673;52.480;13.348;2023-03-04T06:35:56;101168.91;;;9.03;59.89
7264;BME280;3673;52.480;13.348;2023-03-04T06:38:23;101167.63;;;9.44;59.12
7264;BME280;3673;52.480;13.348;2023-03-04T06:40:49;101176.03;;;9.16;59.88
7264;BME280;3673;52.480;13.348;2023-03-04T06:43:18;101176.75;;;9.04;60.52
7264;BME280;3673;52.480;13.348;2023-03-04T06:45:45;101179.25;;;9.72;58.86
7264;BME280;3673;52.480;13.348;2023-03-04T06:48:12;101183.44;;;9.56;59.78
7264;BME280;3673;52.480;13.348;2023-03-04T06:50:39;101187.22;;;9.06;60.91
7264;BME280;3673;52.480;13.348;2023-03-04T06:53:06;101180.59;;;9.34;59.89
7264;BME280;3673;52.480;13.348;2023-03-04T06:55:33;101185.69;;;9.24;60.69
7264;BME280;3673;52.480;13.348;2023-03-04T06:58:00;101183.09;;;9.23;60.52
7264;BME280;3673;52.480;13.348;2023-03-04T07:00:28;101173.28;;;9.04;61.74
7264;BME280;3673;52.480;13.348;2023-03-04T07:02:54;101177.09;;;9.35;60.79
7264;BME280;3673;52.480;13.348;2023-03-04T07:05:23;101176.78;;;9.07;61.26
7264;BME280;3673;52.480;13.348;2023-03-04T07:07:50;101178.44;;;8.99;62.01
7264;BME280;3673;52.480;13.348;2023-03-04T07:10:17;101181.97;;;9.03;62.19
7264;BME280;3673;52.480;13.348;2023-03-04T07:12:44;101188.19;;;9.14;61.24
7264;BME280;3673;52.480;13.348;2023-03-04T07:15:11;101189.69;;;8.95;62.51
7264;BME280;3673;52.480;13.348;2023-03-04T07:17:39;101186.00;;;9.52;61.13
7264;BME280;3673;52.480;13.348;2023-03-04T07:20:08;101183.09;;;9.24;61.81
7264;BME280;3673;52.480;13.348;2023-03-04T07:22:35;101183.91;;;9.19;61.25
7264;BME280;3673;52.480;13.348;2023-03-04T07:25:02;101188.53;;;8.75;63.38
7264;BME280;3673;52.480;13.348;2023-03-04T07:27:29;101183.97;;;9.23;62.55
7264;BME280;3673;52.480;13.348;2023-03-04T07:29:55;101180.41;;;9.18;62.65
7264;BME280;3673;52.480;13.348;2023-03-04T07:32:22;101186.78;;;9.45;62.19
7264;BME280;3673;52.480;13.348;2023-03-04T07:34:50;101197.94;;;9.27;63.10
7264;BME280;3673;52.480;13.348;2023-03-04T07:37:17;101184.38;;;8.88;64.34
7264;BME280;3673;52.480;13.348;2023-03-04T07:39:44;101185.75;;;8.61;65.49
7264;BME280;3673;52.480;13.348;2023-03-04T07:42:11;101176.88;;;9.13;64.00
7264;BME280;3673;52.480;13.348;2023-03-04T07:44:37;101174.56;;;9.39;63.50
7264;BME280;3673;52.480;13.348;2023-03-04T07:47:04;101185.84;;;9.38;63.55
7264;BME280;3673;52.480;13.348;2023-03-04T07:49:31;101180.22;;;9.83;62.62
7264;BME280;3673;52.480;13.348;2023-03-04T07:52:02;101180.41;;;9.18;63.87
7264;BME280;3673;52.480;13.348;2023-03-04T07:54:29;101189.28;;;9.32;62.92
7264;BME280;3673;52.480;13.348;2023-03-04T07:56:55;101177.97;;;9.30;62.67
7264;BME280;3673;52.480;13.348;2023-03-04T07:59:22;101183.25;;;9.37;63.71
7264;BME280;3673;52.480;13.348;2023-03-04T08:01:50;101192.00;;;9.43;64.11
7264;BME280;3673;52.480;13.348;2023-03-04T08:04:16;101190.31;;;9.47;63.38
7264;BME280;3673;52.480;13.348;2023-03-04T08:06:43;101181.34;;;9.25;63.90
7264;BME280;3673;52.480;13.348;2023-03-04T08:09:11;101190.84;;;9.18;64.66
7264;BME280;3673;52.480;13.348;2023-03-04T08:11:38;101191.34;;;9.62;63.66
7264;BME280;3673;52.480;13.348;2023-03-04T08:14:06;101186.19;;;9.71;63.38
7264;BME280;3673;52.480;13.348;2023-03-04T08:16:33;101186.75;;;9.40;63.63
7264;BME280;3673;52.480;13.348;2023-03-04T08:19:02;101182.28;;;9.31;63.78
7264;BME280;3673;52.480;13.348;2023-03-04T08:21:30;101177.09;;;9.33;63.44
7264;BME280;3673;52.480;13.348;2023-03-04T08:23:57;101180.81;;;9.55;63.76
7264;BME280;3673;52.480;13.348;2023-03-04T08:26:31;101175.59;;;9.58;63.02
7264;BME280;3673;52.480;13.348;2023-03-04T08:29:02;101166.25;;;9.79;62.02
7264;BME280;3673;52.480;13.348;2023-03-04T08:31:32;101174.84;;;9.66;62.23
7264;BME280;3673;52.480;13.348;2023-03-04T08:33:59;101168.63;;;9.55;62.46
7264;BME280;3673;52.480;13.348;2023-03-04T08:36:27;101172.22;;;9.68;62.32
7264;BME280;3673;52.480;13.348;2023-03-04T08:38:54;101173.63;;;9.32;62.35
7264;BME280;3673;52.480;13.348;2023-03-04T08:41:21;101169.59;;;9.63;62.25
7264;BME280;3673;52.480;13.348;2023-03-04T08:43:51;101170.13;;;10.22;60.21
7264;BME280;3673;52.480;13.348;2023-03-04T08:46:18;101158.72;;;10.14;60.15
7264;BME280;3673;52.480;13.348;2023-03-04T08:48:44;101166.47;;;10.04;59.42
7264;BME280;3673;52.480;13.348;2023-03-04T08:51:13;101156.16;;;10.19;58.70
7264;BME280;3673;52.480;13.348;2023-03-04T08:53:42;101155.91;;;9.90;58.69
7264;BME280;3673;52.480;13.348;2023-03-04T08:56:10;101153.41;;;10.08;58.50
7264;BME280;3673;52.480;13.348;2023-03-04T08:58:37;101156.06;;;10.11;58.00
7264;BME280;3673;52.480;13.348;2023-03-04T09:01:07;101151.63;;;10.00;58.67
7264;BME280;3673;52.480;13.348;2023-03-04T09:03:35;101154.63;;;9.49;60.28
7264;BME280;3673;52.480;13.348;2023-03-04T09:06:02;101148.88;;;9.86;59.28
7264;BME280;3673;52.480;13.348;2023-03-04T09:08:29;101162.50;;;9.50;59.69
7264;BME280;3673;52.480;13.348;2023-03-04T09:10:56;101146.69;;;10.36;58.70
7264;BME280;3673;52.480;13.348;2023-03-04T09:13:25;101155.09;;;10.02;59.04
7264;BME280;3673;52.480;13.348;2023-03-04T09:15:53;101150.78;;;10.04;58.68
7264;BME280;3673;52.480;13.348;2023-03-04T09:18:22;101149.22;;;10.25;59.07
7264;BME280;3673;52.480;13.348;2023-03-04T09:20:50;101146.66;;;10.31;58.50
7264;BME280;3673;52.480;13.348;2023-03-04T09:23:17;101156.28;;;10.39;58.32
7264;BME280;3673;52.480;13.348;2023-03-04T09:25:45;101154.03;;;11.11;56.52
7264;BME280;3673;52.480;13.348;2023-03-04T09:28:14;101160.72;;;10.49;57.62
7264;BME280;3673;52.480;13.348;2023-03-04T09:30:41;101159.28;;;11.10;56.01
7264;BME280;3673;52.480;13.348;2023-03-04T09:33:08;101166.66;;;10.26;57.16
7264;BME280;3673;52.480;13.348;2023-03-04T09:35:36;101158.84;;;10.31;57.45
7264;BME280;3673;52.480;13.348;2023-03-04T09:38:03;101162.81;;;9.83;57.91
7264;BME280;3673;52.480;13.348;2023-03-04T09:40:40;101164.91;;;10.25;56.87
7264;BME280;3673;52.480;13.348;2023-03-04T09:43:16;101159.03;;;10.64;55.88
7264;BME280;3673;52.480;13.348;2023-03-04T09:45:48;101171.00;;;10.23;55.71
7264;BME280;3673;52.480;13.348;2023-03-04T09:48:21;101167.63;;;10.42;55.32
7264;BME280;3673;52.480;13.348;2023-03-04T09:51:01;101163.47;;;10.74;54.41
7264;BME280;3673;52.480;13.348;2023-03-04T09:53:39;101164.31;;;10.72;55.30
7264;BME280;3673;52.480;13.348;2023-03-04T09:56:10;101160.16;;;11.07;54.32
7264;BME280;3673;52.480;13.348;2023-03-04T09:58:46;101159.38;;;11.43;53.46
7264;BME280;3673;52.480;13.348;2023-03-04T10:01:21;101168.09;;;11.48;52.41
7264;BME280;3673;52.480;13.348;2023-03-04T10:03:52;101168.84;;;11.08;53.38
7264;BME280;3673;52.480;13.348;2023-03-04T10:06:22;101157.28;;;10.57;53.48
7264;BME280;3673;52.480;13.348;2023-03-04T10:08:54;101145.16;;;10.76;53.14
7264;BME280;3673;52.480;13.348;2023-03-04T10:11:27;101152.78;;;10.33;52.08
7264;BME280;3673;52.480;13.348;2023-03-04T10:14:03;101161.03;;;11.21;50.60
7264;BME280;3673;52.480;13.348;2023-03-04T10:16:38;101164.50;;;11.11;49.26
7264;BME280;3673;52.480;13.348;2023-03-04T10:19:40;101159.03;;;10.64;49.50
7264;BME280;3673;52.480;13.348;2023-03-04T10:22:35;101162.66;;;10.86;48.43
7264;BME280;3673;52.480;13.348;2023-03-04T10:25:16;101163.41;;;10.65;48.87
7264;BME280;3673;52.480;13.348;2023-03-04T10:28:02;101173.03;;;10.71;48.84
7264;BME280;3673;52.480;13.348;2023-03-04T10:31:14;101159.09;;;10.72;48.34
7264;BME280;3673;52.480;13.348;2023-03-04T10:33:47;101158.22;;;10.67;47.76
7264;BME280;3673;52.480;13.348;2023-03-04T10:36:59;101153.59;;;10.26;47.77
7264;BME280;3673;52.480;13.348;2023-03-04T10:39:30;101153.94;;;10.87;47.24
7264;BME280;3673;52.480;13.348;2023-03-04T10:42:01;101158.44;;;11.29;46.62
7264;BME280;3673;52.480;13.348;2023-03-04T10:44:30;101160.28;;;11.60;45.70
7264;BME280;3673;52.480;13.348;2023-03-04T10:46:58;101153.13;;;10.97;46.14
7264;BME280;3673;52.480;13.348;2023-03-04T10:49:28;101154.00;;;11.01;46.47
7264;BME280;3673;52.480;13.348;2023-03-04T10:52:02;101160.06;;;10.91;46.53
7264;BME280;3673;52.480;13.348;2023-03-04T10:54:36;101153.06;;;10.85;46.93
7264;BME280;3673;52.480;13.348;2023-03-04T10:57:15;101158.50;;;11.58;45.10
7264;BME280;3673;52.480;13.348;2023-03-04T10:59:46;101155.09;;;12.16;44.08
7264;BME280;3673;52.480;13.348;2023-03-04T11:02:22;101152.44;;;12.22;43.93
7264;BME280;3673;52.480;13.348;2023-03-04T11:04:55;101155.91;;;11.68;44.32
7264;BME280;3673;52.480;13.348;2023-03-04T11:07:26;101165.53;;;11.63;44.60
7264;BME280;3673;52.480;13.348;2023-03-04T11:09:54;101158.28;;;10.80;45.28
7264;BME280;3673;52.480;13.348;2023-03-04T11:12:32;101152.38;;;11.41;44.91
7264;BME280;3673;52.480;13.348;2023-03-04T11:15:01;101150.50;;;11.02;45.27
7264;BME280;3673;52.480;13.348;2023-03-04T11:17:39;101161.69;;;10.69;45.46
7264;BME280;3673;52.480;13.348;2023-03-04T11:20:16;101148.66;;;10.78;45.29
7264;BME280;3673;52.480;13.348;2023-03-04T11:22:45;101165.22;;;10.72;45.28
7264;BME280;3673;52.480;13.348;2023-03-04T11:25:24;101162.47;;;10.53;46.15
7264;BME280;3673;52.480;13.348;2023-03-04T11:27:55;101158.94;;;10.48;46.27
7264;BME280;3673;52.480;13.348;2023-03-04T11:30:38;101168.63;;;10.62;45.99
7264;BME280;3673;52.480;13.348;2023-03-04T11:33:20;101173.25;;;11.07;45.09
7264;BME280;3673;52.480;13.348;2023-03-04T11:36:08;101176.50;;;10.65;45.95
7264;BME280;3673;52.480;13.348;2023-03-04T11:38:42;101176.56;;;10.73;45.51
7264;BME280;3673;52.480;13.348;2023-03-04T11:41:15;101176.50;;;10.62;45.25
7264;BME280;3673;52.480;13.348;2023-03-04T11:43:55;101161.13;;;11.47;43.86
7264;BME280;3673;52.480;13.348;2023-03-04T11:53:27;101174.19;;;11.35;43.13
7264;BME280;3673;52.480;13.348;2023-03-04T11:59:28;101165.34;;;11.04;44.24
7264;BME280;3673;52.480;13.348;2023-03-04T12:02:15;101159.44;;;11.67;43.05
7264;BME280;3673;52.480;13.348;2023-03-04T12:05:18;101175.06;;;11.29;43.58
7264;BME280;3673;52.480;13.348;2023-03-04T12:08:22;101165.31;;;10.92;44.14
7264;BME280;3673;52.480;13.348;2023-03-04T12:11:01;101173.31;;;11.33;43.10
7264;BME280;3673;52.480;13.348;2023-03-04T12:13:46;101173.44;;;11.80;42.18
7264;BME280;3673;52.480;13.348;2023-03-04T12:16:44;101173.94;;;10.76;43.93
7264;BME280;3673;52.480;13.348;2023-03-04T12:19:26;101176.47;;;10.56;44.13
7264;BME280;3673;52.480;13.348;2023-03-04T12:22:16;101172.03;;;10.46;43.70
7264;BME280;3673;52.480;13.348;2023-03-04T12:25:09;101159.13;;;10.76;43.15
7264;BME280;3673;52.480;13.348;2023-03-04T12:27:51;101153.94;;;10.92;42.21
7264;BME280;3673;52.480;13.348;2023-03-04T12:30:39;101171.59;;;11.52;41.13
7264;BME280;3673;52.480;13.348;2023-03-04T12:33:20;101171.56;;;11.29;41.46
7264;BME280;3673;52.480;13.348;2023-03-04T12:35:58;101161.94;;;11.28;41.79
7264;BME280;3673;52.480;13.348;2023-03-04T12:38:48;101167.28;;;11.63;41.02
7264;BME280;3673;52.480;13.348;2023-03-04T12:41:29;101163.75;;;11.47;41.55
7264;BME280;3673;52.480;13.348;2023-03-04T12:44:12;101154.94;;;11.21;42.16
7264;BME280;3673;52.480;13.348;2023-03-04T12:50:09;101164.66;;;11.66;41.14
7264;BME280;3673;52.480;13.348;2023-03-04T12:52:50;101162.97;;;11.77;41.11
7264;BME280;3673;52.480;13.348;2023-03-04T12:55:28;101163.81;;;11.73;40.88
7264;BME280;3673;52.480;13.348;2023-03-04T12:57:57;101172.56;;;12.02;40.56
7264;BME280;3673;52.480;13.348;2023-03-04T13:00:38;101170.81;;;11.92;40.33
7264;BME280;3673;52.480;13.348;2023-03-04T13:03:13;101170.66;;;11.28;41.34
7264;BME280;3673;52.480;13.348;2023-03-04T13:05:58;101162.97;;;11.74;40.82
7264;BME280;3673;52.480;13.348;2023-03-04T13:08:37;101165.53;;;11.69;40.68
7264;BME280;3673;52.480;13.348;2023-03-04T13:11:51;101156.84;;;11.76;40.16
7264;BME280;3673;52.480;13.348;2023-03-04T13:14:28;101163.72;;;11.43;41.35
7264;BME280;3673;52.480;13.348;2023-03-04T13:16:57;101167.22;;;11.48;40.97
7264;BME280;3673;52.480;13.348;2023-03-04T13:19:47;101162.88;;;11.65;40.61
7264;BME280;3673;52.480;13.348;2023-03-04T13:22:46;101160.28;;;11.68;40.55
7264;BME280;3673;52.480;13.348;2023-03-04T13:25:42;101166.47;;;12.03;40.28
7264;BME280;3673;52.480;13.348;2023-03-04T13:28:31;101166.44;;;12.08;40.02
7264;BME280;3673;52.480;13.348;2023-03-04T13:31:13;101164.69;;;12.35;39.88
7264;BME280;3673;52.480;13.348;2023-03-04T13:34:03;101170.81;;;12.18;39.84
7264;BME280;3673;52.480;13.348;2023-03-04T13:36:55;101171.69;;;12.21;39.77
7264;BME280;3673;52.480;13.348;2023-03-04T13:39:31;101161.09;;;11.41;41.15
7264;BME280;3673;52.480;13.348;2023-03-04T13:41:59;101168.09;;;11.42;41.28